Time;durP1;ratioP1;P1;durP2;ratioP2;P2;SDS_P1;SDS_P2;PMS_P1;PMS_P2;Temp;Humidity;BMP_temperature;BMP_pressure;BME280_temperature;BME280_humidity;BME280_pressure;Samples;Min_cycle;Max_cycle;Signal;HPM_P1;HPM_P2
2023/04/21 00:01:54;;;;;;;23.25;14.65;;;8.90;99.90;;;;;;4863967;28;90171;-31
2023/04/21 00:04:19;;;;;;;21.30;16.30;;;8.90;99.90;;;;;;4862517;28;87967;-36
2023/04/21 00:06:45;;;;;;;29.60;17.17;;;8.90;99.90;;;;;;4863925;28;90079;-32
2023/04/21 00:09:10;;;;;;;22.42;15.23;;;8.90;99.90;;;;;;4863172;28;90682;-33
2023/04/21 00:11:36;;;;;;;22.48;15.68;;;8.90;99.90;;;;;;4863904;28;89598;-33
2023/04/21 00:14:02;;;;;;;26.48;18.10;;;9.00;99.90;;;;;;4863743;28;89232;-32
2023/04/21 00:16:28;;;;;;;22.95;15.65;;;8.90;99.90;;;;;;4863059;28;90437;-31
2023/04/21 00:18:53;;;;;;;27.27;15.20;;;8.90;99.90;;;;;;4862807;28;90276;-32
2023/04/21 00:21:19;;;;;;;28.30;15.13;;;8.90;99.90;;;;;;4862834;28;89593;-32
2023/04/21 00:23:46;;;;;;;22.55;13.57;;;8.90;99.90;;;;;;4862735;28;88252;-36
2023/04/21 00:26:11;;;;;;;20.17;13.88;;;9.00;99.90;;;;;;4863351;28;89300;-33
2023/04/21 00:28:37;;;;;;;26.40;14.77;;;9.00;99.90;;;;;;4862684;28;89181;-34
2023/04/21 00:31:03;;;;;;;22.20;13.77;;;8.90;99.90;;;;;;4863660;28;89871;-33
2023/04/21 00:33:28;;;;;;;22.33;14.85;;;8.90;99.90;;;;;;4862879;28;89637;-32
2023/04/21 00:35:55;;;;;;;22.80;16.90;;;8.90;99.90;;;;;;4863847;28;89794;-36
2023/04/21 00:38:21;;;;;;;28.58;15.02;;;8.90;99.90;;;;;;4862818;28;89615;-31
2023/04/21 00:40:46;;;;;;;20.40;14.13;;;8.90;99.90;;;;;;4862768;28;89436;-31
2023/04/21 00:43:12;;;;;;;20.52;15.50;;;8.90;99.90;;;;;;4861956;28;89011;-32
2023/04/21 00:45:38;;;;;;;15.65;13.38;;;9.00;99.90;;;;;;4863115;28;90317;-33
2023/04/21 00:48:03;;;;;;;22.35;16.45;;;8.90;99.90;;;;;;4862338;28;90739;-36
2023/04/21 00:50:29;;;;;;;25.27;18.35;;;8.90;99.90;;;;;;4862821;28;90310;-34
2023/04/21 00:52:55;;;;;;;24.58;19.05;;;8.90;99.90;;;;;;4862665;28;89023;-33
2023/04/21 00:55:21;;;;;;;20.23;15.73;;;9.00;99.90;;;;;;4863187;28;90246;-34
2023/04/21 00:57:47;;;;;;;21.67;13.82;;;9.00;99.90;;;;;;4861884;28;90323;-34
2023/04/21 01:00:14;;;;;;;24.30;17.40;;;8.90;99.90;;;;;;4861912;28;89032;-32
2023/04/21 01:02:40;;;;;;;19.40;14.40;;;8.90;99.90;;;;;;4862696;28;90107;-32
2023/04/21 01:05:07;;;;;;;21.88;18.02;;;8.90;99.90;;;;;;4862558;28;89949;-37
2023/04/21 01:07:34;;;;;;;20.17;15.40;;;9.00;99.90;;;;;;4863119;28;89956;-31
2023/04/21 01:10:00;;;;;;;31.65;17.30;;;8.90;99.90;;;;;;4862925;28;89316;-34
2023/04/21 01:12:25;;;;;;;23.42;16.70;;;8.90;99.90;;;;;;4861586;28;88096;-31
2023/04/21 01:14:51;;;;;;;24.75;19.98;;;8.90;99.90;;;;;;4863134;28;90034;-35
2023/04/21 01:17:17;;;;;;;27.50;21.92;;;8.90;99.90;;;;;;4862243;28;89573;-32
2023/04/21 01:19:44;;;;;;;20.98;18.83;;;9.00;99.90;;;;;;4862068;28;89112;-35
2023/04/21 01:22:11;;;;;;;23.23;20.10;;;9.00;99.90;;;;;;4862440;28;88152;-30
2023/04/21 01:24:47;;;;;;;19.70;13.18;;;9.00;99.90;;;;;;4862583;28;90010;-33
2023/04/21 01:27:15;;;;;;;29.38;20.55;;;9.10;99.90;;;;;;4862079;28;90423;-31
2023/04/21 01:29:42;;;;;;;14.53;12.87;;;9.10;99.90;;;;;;4862690;28;89702;-33
2023/04/21 01:32:13;;;;;;;22.60;17.08;;;9.10;99.90;;;;;;4861786;28;89737;-34
2023/04/21 01:34:40;;;;;;;27.30;18.05;;;9.10;99.90;;;;;;4862057;28;90858;-36
2023/04/21 01:37:08;;;;;;;21.40;18.52;;;9.10;99.90;;;;;;4861615;28;90868;-37
2023/04/21 01:39:37;;;;;;;27.33;22.20;;;9.10;99.90;;;;;;4862712;28;91892;-32
2023/04/21 01:42:03;;;;;;;16.85;13.55;;;9.10;99.90;;;;;;4862119;28;88970;-34
2023/04/21 01:44:29;;;;;;;26.70;16.48;;;9.10;99.90;;;;;;4861436;28;91174;-34
2023/04/21 01:46:54;;;;;;;20.75;16.83;;;9.00;99.90;;;;;;4862315;28;90295;-31
2023/04/21 01:49:20;;;;;;;23.08;15.45;;;9.10;99.90;;;;;;4860963;28;89373;-34
2023/04/21 01:51:45;;;;;;;19.70;16.83;;;9.00;99.90;;;;;;4863001;28;89503;-31
2023/04/21 01:54:11;;;;;;;23.45;18.05;;;8.90;99.90;;;;;;4861725;28;90175;-32
2023/04/21 01:56:37;;;;;;;16.73;14.27;;;8.90;99.90;;;;;;4862039;28;89861;-33
2023/04/21 01:59:03;;;;;;;16.25;12.75;;;8.90;99.90;;;;;;4861524;28;90096;-34
2023/04/21 02:01:28;;;;;;;12.70;10.15;;;8.90;99.90;;;;;;4860970;28;89277;-34
2023/04/21 02:03:54;;;;;;;20.75;16.95;;;8.90;99.90;;;;;;4862862;28;90088;-32
2023/04/21 02:06:19;;;;;;;29.33;15.98;;;8.90;99.90;;;;;;4861963;28;89672;-32
2023/04/21 02:08:45;;;;;;;23.45;16.00;;;8.90;99.90;;;;;;4861787;28;89099;-32
2023/04/21 02:11:10;;;;;;;16.52;13.68;;;8.90;99.90;;;;;;4861119;28;88076;-33
2023/04/21 02:13:36;;;;;;;19.95;13.98;;;8.80;99.90;;;;;;4861914;28;90395;-33
2023/04/21 02:16:02;;;;;;;21.17;13.82;;;8.90;99.90;;;;;;4860614;28;89640;-34
2023/04/21 02:18:28;;;;;;;22.02;13.10;;;8.80;99.90;;;;;;4861833;28;90040;-38
2023/04/21 02:20:55;;;;;;;20.95;12.15;;;8.80;99.90;;;;;;4862357;28;88561;-31
2023/04/21 02:23:20;;;;;;;16.50;13.32;;;8.70;99.90;;;;;;4860624;28;90425;-33
2023/04/21 02:25:46;;;;;;;25.42;12.98;;;8.70;99.90;;;;;;4860008;28;90921;-37
2023/04/21 02:28:12;;;;;;;14.23;11.77;;;8.80;99.90;;;;;;4860716;28;90939;-35
2023/04/21 02:30:37;;;;;;;24.02;13.88;;;8.70;99.90;;;;;;4861425;28;89352;-36
2023/04/21 02:33:03;;;;;;;19.50;15.20;;;8.70;99.90;;;;;;4861291;28;90039;-33
2023/04/21 02:35:28;;;;;;;22.50;15.32;;;8.80;99.90;;;;;;4861629;28;89731;-32
2023/04/21 02:37:54;;;;;;;14.60;11.55;;;8.80;99.90;;;;;;4860523;28;89997;-31
2023/04/21 02:40:20;;;;;;;15.35;12.63;;;8.80;99.90;;;;;;4861718;28;89740;-34
2023/04/21 02:42:45;;;;;;;18.02;14.70;;;8.70;99.90;;;;;;4861901;28;90310;-36
2023/04/21 02:45:11;;;;;;;18.42;15.15;;;8.70;99.90;;;;;;4864578;28;88633;-34
2023/04/21 02:47:36;;;;;;;19.98;16.60;;;8.70;99.90;;;;;;4864254;28;90470;-35
2023/04/21 02:50:03;;;;;;;23.52;15.95;;;8.80;99.90;;;;;;4864941;28;90116;-31
2023/04/21 02:52:28;;;;;;;19.02;16.35;;;8.80;99.90;;;;;;4864432;28;90306;-34
2023/04/21 02:54:54;;;;;;;21.35;17.83;;;8.80;99.90;;;;;;4865412;28;89853;-32
2023/04/21 02:57:20;;;;;;;22.42;18.40;;;8.70;99.90;;;;;;4864506;28;89544;-34
2023/04/21 02:59:45;;;;;;;20.77;15.10;;;8.70;99.90;;;;;;4864943;28;89634;-32
2023/04/21 03:02:11;;;;;;;21.63;19.35;;;8.70;99.90;;;;;;4864401;28;90301;-31
2023/04/21 03:04:36;;;;;;;21.25;16.55;;;8.70;99.90;;;;;;4864418;28;89792;-31
2023/04/21 03:07:02;;;;;;;29.48;21.95;;;8.80;99.90;;;;;;4864919;28;89062;-33
2023/04/21 03:09:28;;;;;;;14.32;12.27;;;8.80;99.90;;;;;;4863755;28;88409;-35
2023/04/21 03:11:53;;;;;;;24.00;18.13;;;8.80;99.90;;;;;;4864531;28;90594;-31
2023/04/21 03:14:19;;;;;;;23.90;16.42;;;8.70;99.90;;;;;;4863506;28;91560;-31
2023/04/21 03:16:46;;;;;;;26.77;20.25;;;8.70;99.90;;;;;;4864469;28;91428;-31
2023/04/21 03:19:11;;;;;;;18.67;16.30;;;8.70;99.90;;;;;;4863535;28;89101;-35
2023/04/21 03:21:37;;;;;;;18.42;16.05;;;8.70;99.90;;;;;;4863775;28;89825;-33
2023/04/21 03:24:04;;;;;;;26.85;21.50;;;8.80;99.90;;;;;;4864361;28;90238;-36
2023/04/21 03:26:30;;;;;;;26.15;19.42;;;8.70;99.90;;;;;;4864361;28;89217;-32
2023/04/21 03:28:55;;;;;;;31.75;16.20;;;8.70;99.90;;;;;;4864318;28;90106;-35
2023/04/21 03:31:21;;;;;;;21.83;17.45;;;8.70;99.90;;;;;;4864622;28;90676;-32
2023/04/21 03:33:47;;;;;;;23.52;14.82;;;8.70;99.90;;;;;;4863934;28;89489;-31
2023/04/21 03:36:12;;;;;;;23.88;18.20;;;8.70;99.90;;;;;;4863724;28;88542;-33
2023/04/21 03:38:38;;;;;;;22.58;16.88;;;8.70;99.90;;;;;;4863781;28;90423;-32
2023/04/21 03:41:04;;;;;;;20.55;17.05;;;8.60;99.90;;;;;;4863968;28;90211;-35
2023/04/21 03:43:29;;;;;;;28.98;21.20;;;8.50;99.90;;;;;;4863838;28;90254;-30
2023/04/21 03:45:55;;;;;;;27.15;22.25;;;8.50;99.90;;;;;;4863448;28;90452;-31
2023/04/21 03:48:20;;;;;;;26.38;20.35;;;8.50;99.90;;;;;;4864158;28;89545;-32
2023/04/21 03:50:46;;;;;;;24.23;16.95;;;8.50;99.90;;;;;;4863276;28;90606;-32
2023/04/21 03:53:12;;;;;;;21.33;15.75;;;8.50;99.90;;;;;;4863490;28;89589;-35
2023/04/21 03:55:37;;;;;;;28.45;20.20;;;8.40;99.90;;;;;;4863403;28;89857;-33
2023/04/21 03:58:03;;;;;;;19.83;17.27;;;8.40;99.90;;;;;;4863224;28;88511;-34
2023/04/21 04:00:29;;;;;;;24.20;17.27;;;8.40;99.90;;;;;;4914396;23;90156;-33
2023/04/21 04:02:55;;;;;;;19.27;14.85;;;8.40;99.90;;;;;;4882248;28;91594;-34
2023/04/21 04:05:20;;;;;;;18.75;14.00;;;8.40;99.90;;;;;;4883167;28;91743;-31
2023/04/21 04:07:46;;;;;;;19.10;15.05;;;8.40;99.90;;;;;;4882845;28;89079;-32
2023/04/21 04:10:11;;;;;;;23.85;18.80;;;8.40;99.90;;;;;;4880953;28;90587;-35
2023/04/21 04:12:37;;;;;;;17.50;15.63;;;8.30;99.90;;;;;;4871072;28;89609;-32
2023/04/21 04:15:03;;;;;;;23.17;15.88;;;8.30;99.90;;;;;;4882177;28;89460;-32
2023/04/21 04:17:29;;;;;;;23.60;14.93;;;8.30;99.90;;;;;;4883197;28;90069;-32
2023/04/21 04:19:54;;;;;;;18.58;14.50;;;8.20;99.90;;;;;;4880537;28;92324;-33
2023/04/21 04:22:20;;;;;;;21.73;17.90;;;8.20;99.90;;;;;;4882538;28;89447;-33
2023/04/21 04:24:46;;;;;;;15.85;12.07;;;8.20;99.90;;;;;;4880652;28;89788;-33
2023/04/21 04:27:15;;;;;;;24.05;15.82;;;8.20;99.90;;;;;;4881723;28;89849;-33
2023/04/21 04:29:42;;;;;;;20.60;15.15;;;8.20;99.90;;;;;;4882011;28;90397;-36
2023/04/21 04:32:09;;;;;;;21.80;14.15;;;8.10;99.90;;;;;;4880356;28;89351;-30
2023/04/21 04:34:36;;;;;;;21.92;14.75;;;8.10;99.90;;;;;;4881533;28;90117;-33
2023/04/21 04:37:03;;;;;;;19.98;13.55;;;8.00;99.90;;;;;;4882295;28;89379;-33
2023/04/21 04:39:29;;;;;;;19.08;13.50;;;8.00;99.90;;;;;;4881746;28;91536;-33
2023/04/21 04:41:55;;;;;;;17.17;12.57;;;8.00;99.90;;;;;;4882421;28;89393;-31
2023/04/21 04:44:22;;;;;;;12.93;11.60;;;8.10;99.90;;;;;;4881049;28;88904;-32
2023/04/21 04:46:48;;;;;;;22.80;14.95;;;8.10;99.90;;;;;;4874077;28;90038;-33
2023/04/21 04:49:14;;;;;;;19.27;12.45;;;8.10;99.90;;;;;;4877628;28;90454;-31
2023/04/21 04:51:39;;;;;;;19.55;11.18;;;8.10;99.90;;;;;;4881411;28;88599;-35
2023/04/21 04:54:05;;;;;;;22.63;14.40;;;8.20;99.90;;;;;;4882082;28;90738;-30
2023/04/21 04:56:31;;;;;;;14.00;11.20;;;8.20;99.90;;;;;;4881700;28;88875;-33
2023/04/21 04:58:56;;;;;;;17.88;13.57;;;8.20;99.90;;;;;;4881384;28;90985;-35
2023/04/21 05:01:28;;;;;;;20.77;13.88;;;8.30;99.90;;;;;;4880387;28;89486;-32
2023/04/21 05:03:54;;;;;;;18.20;11.93;;;8.30;99.90;;;;;;4881275;28;88513;-33
2023/04/21 05:06:20;;;;;;;16.55;13.48;;;8.30;99.90;;;;;;4880645;28;88324;-32
2023/04/21 05:08:46;;;;;;;26.30;11.90;;;8.30;99.90;;;;;;4881986;28;87922;-34
2023/04/21 05:11:11;;;;;;;22.70;11.50;;;8.30;99.90;;;;;;4881000;28;89900;-35
2023/04/21 05:13:37;;;;;;;17.52;13.02;;;8.30;99.90;;;;;;4881388;28;89552;-34
2023/04/21 05:16:02;;;;;;;18.38;14.60;;;8.40;99.90;;;;;;4880646;28;90487;-32
2023/04/21 05:18:28;;;;;;;24.48;12.50;;;8.40;99.90;;;;;;4881118;28;91037;-33
2023/04/21 05:20:54;;;;;;;16.67;12.13;;;8.40;99.90;;;;;;4881718;28;89639;-33
2023/04/21 05:23:20;;;;;;;18.50;14.60;;;8.50;99.90;;;;;;4880333;28;90360;-34
2023/04/21 05:25:46;;;;;;;18.23;13.18;;;8.50;99.90;;;;;;4881809;28;89778;-33
2023/04/21 05:28:11;;;;;;;16.27;13.40;;;8.60;99.90;;;;;;4881362;28;90249;-34
2023/04/21 05:30:37;;;;;;;20.67;13.02;;;8.70;99.90;;;;;;4880794;28;89677;-36
2023/04/21 05:33:03;;;;;;;15.85;10.88;;;8.70;99.90;;;;;;4882146;28;89482;-32
2023/04/21 05:35:32;;;;;;;19.50;14.10;;;8.80;99.90;;;;;;4881202;28;88652;-34
2023/04/21 05:37:57;;;;;;;17.08;14.05;;;8.90;99.90;;;;;;4881033;28;90266;-31
2023/04/21 05:40:23;;;;;;;20.30;14.30;;;8.90;99.90;;;;;;4880565;28;90582;-31
2023/04/21 05:42:48;;;;;;;15.05;11.90;;;9.00;99.90;;;;;;4880780;28;90639;-33
2023/04/21 05:45:14;;;;;;;18.40;12.52;;;9.00;99.90;;;;;;4873170;28;89750;-33
2023/04/21 05:47:40;;;;;;;20.05;12.93;;;9.10;99.90;;;;;;4879708;28;90094;-33
2023/04/21 05:50:07;;;;;;;19.35;12.88;;;9.10;99.90;;;;;;4877751;28;89926;-33
2023/04/21 05:52:33;;;;;;;16.52;11.23;;;9.10;99.90;;;;;;4877567;28;89854;-32
2023/04/21 05:55:00;;;;;;;17.88;11.93;;;9.10;99.90;;;;;;4877558;28;88416;-32
2023/04/21 05:57:25;;;;;;;16.40;12.82;;;9.20;99.90;;;;;;4876800;28;90302;-36
2023/04/21 05:59:51;;;;;;;15.32;12.30;;;9.20;99.90;;;;;;4877837;28;90080;-32
2023/04/21 06:02:17;;;;;;;19.05;12.18;;;9.20;99.90;;;;;;4876921;28;89402;-32
2023/04/21 06:04:42;;;;;;;17.00;12.13;;;9.30;99.90;;;;;;4878217;28;90421;-35
2023/04/21 06:07:09;;;;;;;14.45;11.52;;;9.40;99.90;;;;;;4878120;28;90379;-36
2023/04/21 06:09:35;;;;;;;16.42;13.02;;;9.40;99.90;;;;;;4878649;28;89650;-37
2023/04/21 06:12:04;;;;;;;18.23;13.57;;;9.50;99.90;;;;;;4866596;28;90023;-35
2023/04/21 06:14:31;;;;;;;16.38;12.32;;;9.60;99.90;;;;;;4878756;28;89292;-30
2023/04/21 06:16:57;;;;;;;16.33;11.95;;;9.60;99.90;;;;;;4878908;28;90275;-32
2023/04/21 06:19:22;;;;;;;15.60;11.85;;;9.70;99.90;;;;;;4881891;28;89017;-36
2023/04/21 06:21:48;;;;;;;17.15;11.63;;;9.80;99.90;;;;;;4882833;28;90242;-32
2023/04/21 06:24:14;;;;;;;12.18;10.55;;;9.90;99.90;;;;;;4881647;28;88853;-35
2023/04/21 06:26:40;;;;;;;16.20;12.15;;;10.00;99.90;;;;;;4881222;28;89832;-36
2023/04/21 06:29:05;;;;;;;15.48;12.07;;;10.10;99.90;;;;;;4880949;28;90223;-35
2023/04/21 06:31:31;;;;;;;23.88;11.10;;;10.10;99.90;;;;;;4882264;28;89919;-31
2023/04/21 06:33:56;;;;;;;12.60;11.13;;;10.20;99.90;;;;;;4882744;28;88850;-32
2023/04/21 06:36:22;;;;;;;12.60;10.10;;;10.40;99.90;;;;;;4881633;28;89926;-34
2023/04/21 06:38:48;;;;;;;18.40;9.57;;;10.50;99.90;;;;;;4881414;28;90325;-35
2023/04/21 06:41:13;;;;;;;16.33;12.50;;;10.70;99.90;;;;;;4881629;28;89813;-32
2023/04/21 06:43:40;;;;;;;12.55;10.15;;;10.80;99.90;;;;;;4882301;28;89027;-32
2023/04/21 06:46:05;;;;;;;13.25;11.43;;;11.00;99.90;;;;;;4881975;28;88870;-30
2023/04/21 06:48:31;;;;;;;16.35;10.02;;;11.10;99.90;;;;;;4881444;28;89739;-36
2023/04/21 06:50:56;;;;;;;14.73;11.73;;;11.10;99.90;;;;;;4881176;28;90171;-35
2023/04/21 06:53:22;;;;;;;13.98;10.70;;;11.10;99.90;;;;;;4881463;28;90264;-36
2023/04/21 06:55:48;;;;;;;15.10;10.45;;;11.20;99.90;;;;;;4881452;28;90217;-35
2023/04/21 06:58:14;;;;;;;13.23;11.70;;;11.30;99.90;;;;;;4877436;28;88985;-32
2023/04/21 07:00:40;;;;;;;18.02;12.27;;;11.50;99.90;;;;;;4878110;28;90017;-34
2023/04/21 07:03:05;;;;;;;17.40;12.18;;;11.60;99.90;;;;;;4881256;28;89437;-32
2023/04/21 07:05:31;;;;;;;16.88;11.00;;;11.60;99.90;;;;;;4881096;28;90655;-35
2023/04/21 07:08:00;;;;;;;15.82;13.55;;;11.60;99.90;;;;;;4882124;28;89966;-31
2023/04/21 07:10:26;;;;;;;12.15;9.73;;;11.80;99.90;;;;;;4877978;28;89905;-34
2023/04/21 07:12:52;;;;;;;16.88;11.57;;;11.70;99.90;;;;;;4871940;28;88787;-35
2023/04/21 07:15:17;;;;;;;16.75;11.77;;;11.80;99.90;;;;;;4880879;28;89733;-32
2023/04/21 07:17:43;;;;;;;17.13;12.15;;;11.90;99.90;;;;;;4880348;28;90358;-34
2023/04/21 07:20:09;;;;;;;16.35;12.23;;;11.90;99.90;;;;;;4880884;28;90815;-28
2023/04/21 07:22:35;;;;;;;9.65;7.85;;;11.80;99.90;;;;;;4880718;28;89738;-32
2023/04/21 07:25:05;;;;;;;17.95;14.88;;;12.00;99.90;;;;;;4881271;28;89976;-32
2023/04/21 07:27:31;;;;;;;17.23;9.65;;;12.10;99.90;;;;;;4880709;28;89932;-30
2023/04/21 07:29:57;;;;;;;12.63;9.90;;;12.20;99.90;;;;;;4880970;28;89760;-32
2023/04/21 07:32:22;;;;;;;18.70;11.13;;;12.30;99.90;;;;;;4881505;28;88373;-33
2023/04/21 07:34:48;;;;;;;14.65;11.60;;;12.30;99.90;;;;;;4881861;28;89883;-33
2023/04/21 07:37:15;;;;;;;12.85;10.65;;;12.30;99.90;;;;;;4877793;28;89538;-30
2023/04/21 07:39:40;;;;;;;15.60;11.23;;;12.30;99.90;;;;;;4881212;28;89926;-29
2023/04/21 07:42:07;;;;;;;17.45;10.95;;;12.30;99.90;;;;;;4881286;28;90253;-33
2023/04/21 07:44:33;;;;;;;19.05;11.48;;;12.20;99.90;;;;;;4881404;28;91654;-30
2023/04/21 07:46:59;;;;;;;14.38;11.15;;;12.40;99.90;;;;;;4882697;28;89643;-31
2023/04/21 07:49:24;;;;;;;18.20;13.77;;;12.50;99.90;;;;;;4882279;28;89667;-33
2023/04/21 07:51:50;;;;;;;13.07;10.90;;;12.50;99.90;;;;;;4882571;28;88051;-27
2023/04/21 07:54:16;;;;;;;14.40;11.88;;;12.60;99.90;;;;;;4881209;28;89939;-34
2023/04/21 07:56:42;;;;;;;12.98;11.40;;;12.70;99.90;;;;;;4882582;28;90339;-32
2023/04/21 07:59:07;;;;;;;13.77;10.63;;;12.80;99.90;;;;;;4882128;28;89215;-34
2023/04/21 08:01:33;;;;;;;15.18;10.90;;;13.00;99.90;;;;;;4882314;28;88006;-32
2023/04/21 08:03:58;;;;;;;15.70;11.27;;;13.00;99.90;;;;;;4881541;28;90579;-32
2023/04/21 08:06:24;;;;;;;17.58;11.07;;;13.00;99.90;;;;;;4881713;28;90712;-34
2023/04/21 08:08:50;;;;;;;16.60;12.02;;;13.00;99.90;;;;;;4881865;28;90809;-32
2023/04/21 08:11:16;;;;;;;12.05;10.35;;;13.00;99.90;;;;;;4873760;28;90752;-35
2023/04/21 08:13:41;;;;;;;14.50;10.13;;;13.10;99.90;;;;;;4879118;28;90489;-30
2023/04/21 08:16:07;;;;;;;16.60;13.18;;;13.10;99.90;;;;;;4882102;28;89399;-33
2023/04/21 08:18:33;;;;;;;12.98;10.45;;;13.10;99.90;;;;;;4880659;28;90815;-34
2023/04/21 08:20:58;;;;;;;18.50;11.27;;;13.30;99.90;;;;;;4883215;28;89339;-33
2023/04/21 08:23:24;;;;;;;13.38;10.70;;;13.50;99.90;;;;;;4882393;28;89962;-34
2023/04/21 08:25:49;;;;;;;15.93;10.82;;;13.50;99.90;;;;;;4881676;28;88469;-32
2023/04/21 08:28:15;;;;;;;14.02;9.98;;;13.60;99.90;;;;;;4881391;28;90098;-36
2023/04/21 08:30:41;;;;;;;17.52;12.25;;;13.60;99.90;;;;;;4882043;28;90723;-34
2023/04/21 08:33:12;;;;;;;17.73;12.13;;;13.70;99.90;;;;;;4881666;28;90119;-33
2023/04/21 08:35:38;;;;;;;15.63;10.82;;;13.70;99.90;;;;;;4882451;28;89412;-31
2023/04/21 08:38:05;;;;;;;15.95;11.55;;;13.80;99.90;;;;;;4882156;28;88212;-35
2023/04/21 08:40:37;;;;;;;14.82;11.43;;;13.90;99.90;;;;;;4881236;28;88252;-32
2023/04/21 08:43:07;;;;;;;15.65;10.75;;;14.00;99.90;;;;;;4880872;28;91436;-32
2023/04/21 08:45:34;;;;;;;14.25;12.50;;;14.00;99.90;;;;;;4882126;28;89365;-32
2023/04/21 08:48:00;;;;;;;12.85;11.55;;;14.00;99.90;;;;;;4882367;28;89412;-33
2023/04/21 08:50:28;;;;;;;20.10;11.57;;;14.10;99.90;;;;;;4881134;28;89020;-36
2023/04/21 08:52:57;;;;;;;13.02;11.63;;;14.40;99.90;;;;;;4881158;28;90290;-34
2023/04/21 08:55:27;;;;;;;15.05;11.43;;;14.50;99.90;;;;;;4881153;28;90855;-32
2023/04/21 08:57:53;;;;;;;14.35;11.15;;;14.60;99.90;;;;;;4881694;28;90976;-31
2023/04/21 09:00:19;;;;;;;18.52;12.48;;;14.70;99.90;;;;;;4881741;28;89772;-33
2023/04/21 09:02:54;;;;;;;18.48;13.52;;;14.80;99.90;;;;;;4881113;28;89033;-32
2023/04/21 09:05:28;;;;;;;14.95;12.73;;;14.90;99.90;;;;;;4881632;28;90889;-33
2023/04/21 09:08:13;;;;;;;15.85;12.23;;;14.90;99.90;;;;;;4881611;28;89516;-36
2023/04/21 09:10:47;;;;;;;17.35;11.27;;;15.20;99.90;;;;;;4878145;28;89110;-33
2023/04/21 09:13:14;;;;;;;14.43;13.10;;;15.70;99.90;;;;;;4875222;28;89407;-34
2023/04/21 09:15:42;;;;;;;17.00;13.60;;;15.90;99.90;;;;;;4880970;28;89619;-30
2023/04/21 09:18:16;;;;;;;20.67;11.90;;;15.90;99.90;;;;;;4881497;28;88571;-35
2023/04/21 09:20:44;;;;;;;22.30;13.68;;;15.70;99.90;;;;;;4881256;28;91030;-33
2023/04/21 09:23:10;;;;;;;20.47;12.97;;;15.60;99.90;;;;;;4880703;28;90069;-36
2023/04/21 09:25:41;;;;;;;18.08;13.00;;;15.50;99.90;;;;;;4881380;28;90094;-36
2023/04/21 09:28:08;;;;;;;17.13;13.70;;;15.50;99.90;;;;;;4880364;28;88915;-36
2023/04/21 09:30:36;;;;;;;15.30;13.55;;;15.60;99.90;;;;;;4881590;28;89793;-34
2023/04/21 09:33:02;;;;;;;20.50;12.70;;;15.60;99.90;;;;;;4880838;28;91658;-34
2023/04/21 09:35:28;;;;;;;29.08;12.20;;;15.70;99.90;;;;;;4880465;28;89631;-32
2023/04/21 09:37:54;;;;;;;13.38;11.45;;;15.70;99.90;;;;;;4881555;28;89648;-34
2023/04/21 09:40:20;;;;;;;16.05;11.82;;;15.70;99.90;;;;;;4881518;28;88421;-32
2023/04/21 09:42:45;;;;;;;20.27;15.10;;;15.70;99.90;;;;;;4881207;28;90139;-34
2023/04/21 09:45:13;;;;;;;19.73;14.82;;;15.80;99.90;;;;;;4881019;28;90647;-34
2023/04/21 09:47:42;;;;;;;21.13;12.17;;;15.80;99.90;;;;;;4880948;28;90123;-32
2023/04/21 09:50:10;;;;;;;21.90;13.45;;;16.00;99.90;;;;;;4880791;28;88234;-35
2023/04/21 09:52:41;;;;;;;15.75;13.32;;;16.00;99.90;;;;;;4880599;28;89291;-33
2023/04/21 09:55:12;;;;;;;17.70;12.95;;;15.90;99.90;;;;;;4880365;28;89748;-32
2023/04/21 09:57:40;;;;;;;15.93;13.20;;;16.00;99.90;;;;;;4886416;28;91525;-36
2023/04/21 10:00:12;;;;;;;;;;;16.10;99.90;;;;;;4879281;28;89381;-31
2023/04/21 10:02:43;;;;;;;13.70;12.25;;;16.10;99.90;;;;;;4880739;28;91509;-35
2023/04/21 10:05:11;;;;;;;19.95;14.18;;;16.20;99.90;;;;;;4878915;28;89472;-32
2023/04/21 10:07:36;;;;;;;15.27;12.85;;;16.40;99.90;;;;;;4878410;28;90049;-33
2023/04/21 10:10:05;;;;;;;19.75;15.02;;;16.50;99.90;;;;;;4876728;28;89566;-36
2023/04/21 10:12:32;;;;;;;17.98;12.95;;;16.40;99.90;;;;;;4879339;28;91521;-33
2023/04/21 10:15:02;;;;;;;18.35;12.95;;;16.40;99.90;;;;;;4878979;28;89573;-36
2023/04/21 10:17:27;;;;;;;18.48;12.88;;;16.40;99.90;;;;;;4878955;28;89929;-36
2023/04/21 10:19:57;;;;;;;14.88;13.40;;;16.60;99.90;;;;;;4878714;28;88939;-33
2023/04/21 10:22:31;;;;;;;17.67;13.85;;;16.90;99.90;;;;;;4878268;28;89795;-32
2023/04/21 10:24:59;;;;;;;16.15;13.77;;;17.10;99.90;;;;;;4878895;28;89324;-35
2023/04/21 10:27:31;;;;;;;16.88;13.80;;;17.30;97.00;;;;;;4879021;28;90406;-33
2023/04/21 10:29:57;;;;;;;18.40;13.80;;;17.30;91.80;;;;;;4878811;28;88884;-35
2023/04/21 10:32:44;;;;;;;13.35;11.82;;;17.60;99.90;;;;;;4879067;28;90430;-34
2023/04/21 10:35:22;;;;;;;13.43;11.80;;;17.60;94.30;;;;;;4877508;28;90104;-32
2023/04/21 10:37:50;;;;;;;19.25;14.05;;;17.80;97.80;;;;;;4878625;28;90571;-35
2023/04/21 10:40:34;;;;;;;13.70;12.02;;;17.90;94.50;;;;;;4875153;28;89768;-37
2023/04/21 10:43:03;;;;;;;15.70;12.18;;;17.80;82.70;;;;;;4875140;28;91575;-33
2023/04/21 10:45:30;;;;;;;16.10;13.50;;;17.80;88.20;;;;;;4877832;28;89832;-33
2023/04/21 10:48:00;;;;;;;13.77;12.30;;;17.90;90.50;;;;;;4878261;28;88248;-32
2023/04/21 10:50:30;;;;;;;17.10;13.40;;;17.90;88.60;;;;;;4878374;28;89073;-33
2023/04/21 10:52:57;;;;;;;14.45;11.82;;;18.00;87.80;;;;;;4878735;28;90488;-35
2023/04/21 10:55:25;;;;;;;16.38;12.25;;;18.20;85.20;;;;;;4877573;28;88768;-33
2023/04/21 10:57:51;;;;;;;18.40;12.82;;;18.40;83.80;;;;;;4877980;28;89679;-33
2023/04/21 11:00:20;;;;;;;13.30;11.82;;;18.40;80.00;;;;;;4877271;28;90394;-32
2023/04/21 11:03:03;;;;;;;13.88;11.43;;;18.30;80.70;;;;;;4877571;28;90298;-33
2023/04/21 11:05:37;;;;;;;22.25;11.48;;;18.10;77.70;;;;;;4880589;28;89759;-33
2023/04/21 11:08:21;;;;;;;21.55;10.98;;;17.90;77.60;;;;;;4881270;28;90213;-33
2023/04/21 11:10:49;;;;;;;10.48;9.20;;;17.80;80.50;;;;;;4875128;28;88322;-35
2023/04/21 11:13:14;;;;;;;13.27;9.93;;;17.80;76.00;;;;;;4875095;28;90865;-32
2023/04/21 11:15:40;;;;;;;16.65;10.85;;;17.80;77.60;;;;;;4881226;28;89453;-33
2023/04/21 11:18:07;;;;;;;11.90;10.05;;;18.00;74.60;;;;;;4881581;28;89929;-38
2023/04/21 11:20:33;;;;;;;14.43;9.68;;;18.20;75.20;;;;;;4880688;28;90369;-34
2023/04/21 11:22:58;;;;;;;10.55;9.27;;;18.30;73.30;;;;;;4881743;28;89907;-34
2023/04/21 11:25:24;;;;;;;12.93;9.55;;;18.40;74.80;;;;;;4880970;28;90980;-33
2023/04/21 11:27:58;;;;;;;16.05;10.02;;;18.40;73.00;;;;;;4881233;28;90439;-34
2023/04/21 11:30:32;;;;;;;9.48;8.48;;;18.40;73.10;;;;;;4881690;28;89660;-35
2023/04/21 11:32:58;;;;;;;13.50;8.93;;;18.50;75.10;;;;;;4881293;28;89914;-36
2023/04/21 11:35:24;;;;;;;12.98;8.80;;;18.50;74.70;;;;;;4881563;28;89554;-34
2023/04/21 11:37:51;;;;;;;9.93;8.77;;;18.40;70.80;;;;;;4881542;28;89550;-32
2023/04/21 11:40:17;;;;;;;12.98;8.50;;;18.50;69.00;;;;;;4880855;28;89795;-36
2023/04/21 11:42:43;;;;;;;8.90;7.78;;;18.50;70.50;;;;;;4881830;28;89405;-35
2023/04/21 11:45:16;;;;;;;12.65;8.98;;;18.50;70.70;;;;;;4880970;28;88970;-34
2023/04/21 11:47:42;;;;;;;7.90;7.20;;;18.50;70.20;;;;;;4882266;28;90167;-34
2023/04/21 11:50:09;;;;;;;10.57;8.40;;;18.40;70.60;;;;;;4880495;28;89867;-31
2023/04/21 11:52:40;;;;;;;12.60;8.52;;;18.70;68.80;;;;;;4881279;28;90449;-31
2023/04/21 11:55:11;;;;;;;16.48;7.95;;;18.70;70.50;;;;;;4881253;28;89948;-34
2023/04/21 11:57:39;;;;;;;16.13;8.23;;;18.60;67.50;;;;;;4881285;28;90007;-34
2023/04/21 12:00:10;;;;;;;7.78;7.03;;;18.90;68.60;;;;;;4880603;28;89967;-32
2023/04/21 12:02:36;;;;;;;9.68;7.47;;;19.20;66.60;;;;;;4880708;28;89853;-35
2023/04/21 12:05:10;;;;;;;8.45;7.18;;;19.10;64.60;;;;;;4881370;28;90208;-34
2023/04/21 12:07:38;;;;;;;9.68;6.88;;;19.20;65.70;;;;;;4881317;28;89323;-35
2023/04/21 12:10:18;;;;;;;8.73;7.35;;;19.10;65.20;;;;;;4880879;28;89157;-33
2023/04/21 12:12:44;;;;;;;10.75;7.65;;;18.90;64.80;;;;;;4880488;28;90627;-31
2023/04/21 12:15:15;;;;;;;14.18;8.02;;;18.70;64.80;;;;;;4878281;28;90917;-33
2023/04/21 12:17:51;;;;;;;8.23;6.35;;;18.70;65.40;;;;;;4888434;28;90540;-37
2023/04/21 12:20:18;;;;;;;7.97;7.18;;;18.80;64.80;;;;;;4871297;28;88810;-35
2023/04/21 12:22:45;;;;;;;12.52;7.70;;;18.80;63.70;;;;;;4880176;28;90851;-36
2023/04/21 12:25:10;;;;;;;11.68;7.45;;;18.80;63.00;;;;;;4879157;28;89928;-31
2023/04/21 12:27:36;;;;;;;16.20;8.23;;;18.70;64.00;;;;;;4880327;28;89931;-34
2023/04/21 12:30:03;;;;;;;13.05;7.40;;;18.50;65.00;;;;;;4880094;28;88173;-34
2023/04/21 12:32:28;;;;;;;10.68;6.30;;;18.40;63.70;;;;;;4880110;28;91900;-36